YWNT weather

Westmead NETS Base Hospital Heliport
Westmead, New South Wales, Australia

Public forecast

Using degrees Celsius for public forecast. Weather courtesy of forecast.io.

METAR (pilot weather report)

Closest report is Sydney Kingsford Smith International Airport, 12.7 nm (23.5 km) SE. Retrieved 2019/04/26 04:00 UTC (3 minutes ago):

YSSY 260400Z 26007KT CAVOK 28/07 Q1010 FM0500 26018KT CAVOK FM0400 MOD TURB BLW 5000FT

TAF (pilot weather forecast)

Forecast is more than 12 hours old.

Closest forecast is Sydney Kingsford Smith International Airport, 12.7 nm (23.5 km) SE. Retrieved 2019/04/25 12:00 UTC (16 hours ago):

TAF YSSY 251112Z 2512/2618 28008KT CAVOK FM260200 24014G28KT CAVOK FM261000 24012KT CAVOK FM261400 20012KT 9999 -SHRA SCT025 SCT040 PROB30 2516/2518 4000 BR PROB30 2518/2522 0400 FG BKN001 PROB30 2522/2523 4000 BR SCT001